Time;durP1;ratioP1;P1;durP2;ratioP2;P2;SDS_P1;SDS_P2;PMS_P1;PMS_P2;Temp;Humidity;BMP_temperature;BMP_pressure;BME280_temperature;BME280_humidity;BME280_pressure;Samples;Min_cycle;Max_cycle;Signal;HPM_P1;HPM_P2
2021/05/06 00:02:30;;;;;;;6.80;1.50;;;20.90;42.90;;;;;;4996504;28;20415;-68
2021/05/06 00:29:58;;;;;;;4.88;1.63;;;20.80;42.90;;;;;;5002371;28;20417;-66
2021/05/06 00:32:26;;;;;;;6.32;2.03;;;20.80;42.90;;;;;;4995144;28;20421;-67
2021/05/06 00:34:52;;;;;;;2.17;1.60;;;20.80;42.90;;;;;;4993832;28;20419;-66
2021/05/06 00:37:19;;;;;;;3.13;1.50;;;20.80;42.90;;;;;;4998769;28;20420;-67
2021/05/06 00:39:49;;;;;;;5.22;1.60;;;20.80;42.90;;;;;;4999453;28;20432;-67
2021/05/06 00:42:35;;;;;;;4.22;1.60;;;20.80;42.90;;;;;;4990928;28;20418;-67
2021/05/06 00:59:25;;;;;;;4.97;1.35;;;20.90;42.40;;;;;;4960278;28;20414;-67
2021/05/06 01:04:50;;;;;;;4.20;1.42;;;21.00;42.10;;;;;;4983525;28;20419;-66
2021/05/06 01:07:36;;;;;;;3.08;1.20;;;21.10;42.10;;;;;;5001206;28;20431;-67
2021/05/06 01:12:47;;;;;;;5.80;1.92;;;21.10;41.90;;;;;;4990568;28;20455;-68
2021/05/06 01:15:20;;;;;;;5.40;1.60;;;21.10;41.80;;;;;;4998214;28;20504;-68
2021/05/06 01:17:47;;;;;;;3.25;1.58;;;21.10;41.80;;;;;;4980120;28;20534;-67
2021/05/06 01:20:13;;;;;;;2.63;1.20;;;21.10;41.80;;;;;;5004838;28;20424;-67
2021/05/06 01:22:40;;;;;;;4.43;1.47;;;21.00;41.70;;;;;;5000736;28;20429;-68
2021/05/06 01:25:07;;;;;;;5.00;1.40;;;21.00;41.90;;;;;;5000724;28;20495;-68
2021/05/06 01:27:41;;;;;;;3.33;1.33;;;20.90;41.90;;;;;;5003481;28;20410;-67
2021/05/06 01:30:16;;;;;;;3.28;1.48;;;20.90;42.00;;;;;;4999016;28;21069;-68
2021/05/06 01:32:44;;;;;;;2.55;1.48;;;20.90;42.10;;;;;;4993026;28;20427;-67
2021/05/06 01:35:12;;;;;;;3.40;1.60;;;20.90;42.10;;;;;;5003918;28;20420;-66
2021/05/06 01:37:47;;;;;;;5.77;1.33;;;20.90;42.30;;;;;;4992858;28;20436;-66
2021/05/06 01:43:06;;;;;;;2.60;1.50;;;20.80;42.10;;;;;;4988824;28;20426;-66
2021/05/06 01:46:02;;;;;;;5.93;2.00;;;20.80;42.00;;;;;;4999584;28;20511;-67
2021/05/06 01:48:50;;;;;;;2.23;1.20;;;20.80;41.90;;;;;;4991301;28;20420;-65
2021/05/06 01:59:35;;;;;;;2.63;1.50;;;20.90;41.90;;;;;;4989473;28;21209;-67
2021/05/06 02:02:02;;;;;;;3.85;1.42;;;20.90;41.80;;;;;;4997233;28;20416;-66
2021/05/06 02:04:28;;;;;;;2.53;1.30;;;20.90;41.90;;;;;;4995001;28;20440;-67
2021/05/06 02:06:54;;;;;;;3.67;1.17;;;20.90;41.90;;;;;;5001467;28;20406;-67
2021/05/06 02:09:21;;;;;;;2.90;1.50;;;20.80;41.90;;;;;;5005639;28;20465;-66
2021/05/06 02:11:47;;;;;;;4.00;1.50;;;20.80;41.90;;;;;;5008393;28;20427;-67
2021/05/06 02:14:14;;;;;;;6.07;1.40;;;20.80;41.90;;;;;;4999506;28;20508;-67
2021/05/06 02:16:40;;;;;;;2.50;1.42;;;20.80;41.90;;;;;;5002533;28;20426;-67
2021/05/06 02:19:07;;;;;;;5.88;1.50;;;20.80;42.10;;;;;;4968331;28;20481;-68
2021/05/06 02:21:33;;;;;;;1.92;1.30;;;20.80;42.10;;;;;;4991971;28;20866;-68
2021/05/06 02:23:59;;;;;;;2.17;1.40;;;20.80;42.00;;;;;;4981242;28;20417;-67
2021/05/06 02:26:26;;;;;;;4.60;1.20;;;20.80;42.10;;;;;;4990345;28;20415;-67
2021/05/06 02:28:52;;;;;;;6.05;1.70;;;20.80;42.10;;;;;;4988483;28;20529;-67
2021/05/06 02:31:18;;;;;;;3.60;1.50;;;20.80;42.10;;;;;;5003461;28;20777;-67
2021/05/06 02:33:45;;;;;;;2.70;1.40;;;20.80;42.20;;;;;;4999747;28;20428;-67
2021/05/06 02:36:11;;;;;;;4.00;1.60;;;20.80;41.80;;;;;;4999888;28;20946;-67
2021/05/06 02:38:37;;;;;;;5.63;2.40;;;20.80;41.80;;;;;;5001429;28;20953;-67
2021/05/06 02:41:03;;;;;;;2.90;1.40;;;20.80;41.70;;;;;;4998765;28;20415;-67
2021/05/06 02:43:30;;;;;;;3.05;1.50;;;20.80;41.70;;;;;;4999371;28;20478;-67
2021/05/06 02:45:56;;;;;;;3.70;1.45;;;20.80;41.70;;;;;;5003795;28;20419;-67
2021/05/06 02:48:23;;;;;;;4.18;1.50;;;20.80;41.60;;;;;;5001261;28;20424;-66
2021/05/06 02:50:53;;;;;;;2.75;1.20;;;20.80;41.70;;;;;;4997911;28;20448;-67
2021/05/06 02:53:23;;;;;;;3.20;1.23;;;20.80;41.70;;;;;;4990507;28;20418;-67
2021/05/06 02:55:56;;;;;;;2.22;1.10;;;20.80;41.70;;;;;;4996281;28;20409;-67
2021/05/06 02:58:37;;;;;;;3.28;1.38;;;20.70;41.60;;;;;;4988613;28;20517;-66
2021/05/06 03:03:49;;;;;;;4.43;1.25;;;20.80;41.80;;;;;;5002066;28;20429;-68
2021/05/06 03:06:19;;;;;;;4.60;1.13;;;20.80;41.70;;;;;;4977012;28;20422;-66
2021/05/06 03:08:49;;;;;;;5.35;1.40;;;20.80;41.70;;;;;;4985685;28;20432;-66
2021/05/06 03:11:28;;;;;;;4.30;1.30;;;20.80;41.70;;;;;;4989701;28;20440;-66
2021/05/06 03:22:42;;;;;;;4.18;1.20;;;20.90;41.50;;;;;;4933886;28;21067;-67
2021/05/06 03:25:11;;;;;;;1.90;1.10;;;20.90;41.40;;;;;;4980850;28;20514;-67
2021/05/06 03:27:43;;;;;;;3.15;1.50;;;20.90;41.60;;;;;;5008335;28;21372;-66
2021/05/06 03:30:26;;;;;;;3.78;1.50;;;21.00;41.50;;;;;;4996033;28;20428;-67
2021/05/06 03:33:00;;;;;;;1.75;1.10;;;21.00;41.50;;;;;;4996047;28;21533;-66
2021/05/06 03:35:42;;;;;;;2.22;1.27;;;21.00;41.40;;;;;;4976238;28;20420;-66
2021/05/06 03:43:57;;;;;;;5.07;1.40;;;21.20;41.30;;;;;;4995149;28;20566;-68
2021/05/06 04:03:27;;;;;;;3.90;2.30;;;21.30;41.00;;;;;;4991086;28;21051;-66
2021/05/06 04:14:39;;;;;;;3.20;1.50;;;21.30;40.50;;;;;;4998829;28;20500;-68
2021/05/06 04:17:21;;;;;;;3.10;1.85;;;21.30;40.40;;;;;;4981819;28;20544;-67
2021/05/06 04:28:16;;;;;;;5.03;1.60;;;21.20;40.20;;;;;;4957834;28;21032;-68
2021/05/06 04:30:57;;;;;;;4.30;1.90;;;21.20;40.40;;;;;;5000913;28;20439;-67
2021/05/06 04:36:18;;;;;;;4.70;1.70;;;21.20;40.30;;;;;;4958781;28;20467;-67
2021/05/06 04:38:45;;;;;;;2.92;1.90;;;21.20;40.20;;;;;;5001729;28;20424;-67
2021/05/06 04:41:22;;;;;;;5.90;2.07;;;21.20;40.10;;;;;;4996341;28;20420;-66
2021/05/06 04:55:12;;;;;;;4.18;2.10;;;21.20;39.50;;;;;;5002579;28;20414;-67
2021/05/06 04:57:57;;;;;;;3.70;2.10;;;21.20;39.60;;;;;;4998128;28;20500;-68
2021/05/06 05:05:57;;;;;;;3.63;1.50;;;21.10;40.20;;;;;;4976883;28;20472;-68
2021/05/06 05:08:23;;;;;;;6.93;2.20;;;21.10;39.90;;;;;;4982244;28;20427;-68
2021/05/06 05:11:05;;;;;;;10.70;3.75;;;21.20;42.80;;;;;;5010546;28;20920;-67
2021/05/06 05:13:47;;;;;;;18.38;3.40;;;21.20;43.60;;;;;;4982126;28;20462;-67
2021/05/06 05:19:34;;;;;;;12.63;2.90;;;21.20;46.70;;;;;;4991359;28;20418;-69
2021/05/06 05:24:54;;;;;;;22.20;4.03;;;21.00;71.20;;;;;;4973834;28;20571;-68
2021/05/06 05:27:23;;;;;;;27.60;3.80;;;21.20;77.50;;;;;;4993986;28;20518;-67
2021/05/06 05:29:49;;;;;;;29.20;5.23;;;21.30;84.80;;;;;;4987739;28;20412;-68
2021/05/06 05:32:15;;;;;;;28.50;5.22;;;21.40;84.40;;;;;;5002396;28;20478;-68
2021/05/06 05:34:43;;;;;;;75.88;10.15;;;21.40;83.30;;;;;;4999715;28;20417;-68
2021/05/06 05:37:15;;;;;;;91.07;12.60;;;21.40;84.20;;;;;;4994438;28;20465;-68
2021/05/06 05:39:50;;;;;;;140.73;22.00;;;21.40;84.70;;;;;;4995344;28;20517;-68
2021/05/06 05:42:24;;;;;;;128.35;21.95;;;21.60;89.30;;;;;;4999860;28;20586;-68
2021/05/06 05:55:53;;;;;;;101.60;20.08;;;21.40;70.50;;;;;;4981669;28;20408;-68
2021/05/06 05:58:19;;;;;;;112.72;20.88;;;21.50;65.50;;;;;;4996080;28;20428;-67
2021/05/06 06:00:46;;;;;;;85.55;17.00;;;21.40;61.60;;;;;;4967668;28;20424;-68
2021/05/06 06:03:12;;;;;;;64.15;13.70;;;21.30;56.30;;;;;;4989730;28;20451;-68
2021/05/06 06:05:39;;;;;;;47.72;10.57;;;21.20;52.60;;;;;;5003739;28;21040;-68
2021/05/06 06:08:05;;;;;;;29.17;7.53;;;21.10;49.40;;;;;;4985940;28;20423;-68
2021/05/06 06:10:31;;;;;;;33.50;7.05;;;21.10;47.50;;;;;;4987037;28;20536;-68
2021/05/06 06:12:57;;;;;;;26.50;6.07;;;21.20;47.50;;;;;;4998699;28;20496;-68
2021/05/06 06:15:34;;;;;;;28.65;5.60;;;21.20;47.30;;;;;;4995137;28;20541;-68
2021/05/06 06:18:11;;;;;;;24.27;5.47;;;21.20;46.70;;;;;;5000688;28;20420;-68
2021/05/06 06:20:39;;;;;;;17.90;4.90;;;21.20;46.60;;;;;;4973553;28;20483;-67
2021/05/06 06:23:05;;;;;;;21.48;5.25;;;21.20;46.50;;;;;;4989950;28;20477;-68
2021/05/06 06:25:31;;;;;;;18.97;4.63;;;21.20;46.20;;;;;;4988653;28;20420;-68
2021/05/06 06:27:57;;;;;;;21.70;5.15;;;21.10;46.50;;;;;;4997639;28;20428;-68
2021/05/06 06:30:24;;;;;;;15.40;4.00;;;21.10;46.10;;;;;;4980478;28;20458;-67
2021/05/06 06:32:52;;;;;;;19.27;4.35;;;21.10;46.00;;;;;;4994023;28;20422;-68
2021/05/06 06:35:19;;;;;;;16.67;4.10;;;21.10;45.90;;;;;;4993919;28;20444;-68
2021/05/06 06:37:45;;;;;;;13.00;3.92;;;21.10;45.70;;;;;;4998176;28;20428;-67
2021/05/06 06:40:13;;;;;;;16.13;3.72;;;21.00;45.90;;;;;;4980052;28;20417;-67
2021/05/06 06:42:39;;;;;;;14.57;3.88;;;21.00;45.90;;;;;;4980096;28;20417;-67
2021/05/06 06:45:07;;;;;;;13.97;3.20;;;21.00;45.30;;;;;;5000705;28;20503;-68
2021/05/06 06:47:33;;;;;;;10.35;3.17;;;21.00;45.60;;;;;;5003098;28;20879;-68
2021/05/06 06:49:59;;;;;;;16.73;4.45;;;21.00;45.60;;;;;;4997906;28;20483;-67
2021/05/06 06:52:26;;;;;;;17.10;3.95;;;20.90;45.20;;;;;;4992733;28;21190;-69
2021/05/06 06:54:52;;;;;;;12.50;4.15;;;20.90;44.90;;;;;;4993843;28;20429;-68
2021/05/06 06:57:19;;;;;;;11.70;3.15;;;20.90;45.30;;;;;;5011565;28;20443;-67
2021/05/06 06:59:45;;;;;;;8.73;3.00;;;20.90;45.10;;;;;;4990196;28;20435;-69
2021/05/06 07:02:12;;;;;;;9.13;3.05;;;21.00;45.20;;;;;;4993308;28;20439;-67
2021/05/06 07:04:38;;;;;;;9.13;2.60;;;21.00;45.00;;;;;;4987944;28;20479;-68
2021/05/06 07:07:04;;;;;;;6.95;2.70;;;21.00;45.00;;;;;;4973476;28;20411;-68
2021/05/06 07:09:31;;;;;;;6.68;2.78;;;21.00;44.70;;;;;;4991919;28;20542;-68
2021/05/06 07:11:57;;;;;;;13.32;2.90;;;21.00;44.90;;;;;;4948372;28;20942;-69
2021/05/06 07:14:24;;;;;;;10.05;2.80;;;21.00;44.50;;;;;;4973564;28;20440;-68
2021/05/06 07:16:50;;;;;;;6.50;2.47;;;21.00;44.40;;;;;;4982821;28;20422;-67
2021/05/06 07:19:16;;;;;;;7.05;2.50;;;21.00;44.50;;;;;;4986274;28;20423;-68
2021/05/06 07:21:42;;;;;;;10.15;2.95;;;21.00;44.60;;;;;;5003746;28;20429;-67
2021/05/06 07:24:09;;;;;;;5.10;2.20;;;20.90;44.20;;;;;;4994634;28;20429;-68
2021/05/06 07:26:36;;;;;;;7.40;2.40;;;20.90;44.20;;;;;;4995658;28;20424;-67
2021/05/06 07:29:03;;;;;;;2.80;1.87;;;20.90;44.60;;;;;;4995098;28;20443;-68
2021/05/06 07:31:29;;;;;;;8.27;2.00;;;20.90;44.10;;;;;;4998404;28;20412;-68
2021/05/06 07:33:55;;;;;;;7.40;2.00;;;20.90;44.30;;;;;;4996914;28;20432;-68
2021/05/06 07:36:21;;;;;;;4.47;2.17;;;20.90;44.30;;;;;;4997836;28;20452;-68
2021/05/06 07:38:47;;;;;;;4.43;2.00;;;20.90;44.40;;;;;;4990294;28;20556;-68
2021/05/06 07:41:14;;;;;;;6.07;1.88;;;20.90;43.70;;;;;;5006949;28;20440;-68
2021/05/06 07:43:43;;;;;;;3.33;2.00;;;21.00;43.90;;;;;;4997776;28;20425;-66
2021/05/06 07:46:09;;;;;;;2.90;1.50;;;21.00;44.00;;;;;;5001177;28;20579;-67
2021/05/06 07:48:35;;;;;;;4.25;1.85;;;21.00;43.80;;;;;;4998911;28;20421;-68
2021/05/06 07:51:02;;;;;;;4.15;1.50;;;21.00;43.60;;;;;;4995760;28;20408;-68
2021/05/06 07:53:35;;;;;;;6.70;2.13;;;21.00;43.60;;;;;;4987201;28;20429;-68
2021/05/06 07:56:02;;;;;;;5.60;1.80;;;21.00;43.60;;;;;;5004720;28;20489;-68
2021/05/06 07:58:28;;;;;;;6.63;1.80;;;21.10;43.60;;;;;;5000768;28;20492;-68
2021/05/06 08:00:55;;;;;;;4.03;1.88;;;21.00;43.40;;;;;;4992416;28;20415;-66
2021/05/06 08:03:21;;;;;;;4.55;1.65;;;21.00;43.30;;;;;;4998814;28;20408;-68
2021/05/06 08:05:47;;;;;;;6.47;1.90;;;21.00;43.40;;;;;;5004038;28;20435;-68
2021/05/06 08:08:13;;;;;;;3.38;1.40;;;21.00;43.30;;;;;;4987685;28;20425;-68
2021/05/06 08:10:42;;;;;;;5.00;1.50;;;20.90;43.50;;;;;;4999369;28;20430;-67
2021/05/06 08:13:08;;;;;;;5.72;2.00;;;20.90;43.20;;;;;;4991022;28;21514;-67
2021/05/06 08:15:34;;;;;;;4.10;1.70;;;20.90;43.50;;;;;;5005913;28;20408;-68
2021/05/06 08:18:01;;;;;;;2.10;1.20;;;20.90;43.50;;;;;;4998959;28;20432;-67
2021/05/06 08:20:27;;;;;;;5.90;1.92;;;20.90;43.20;;;;;;4998700;28;20419;-68
2021/05/06 08:22:53;;;;;;;5.10;1.60;;;20.80;43.10;;;;;;4997068;28;20427;-67
2021/05/06 08:25:23;;;;;;;4.25;1.40;;;20.60;43.80;;;;;;4996233;28;20413;-67
2021/05/06 08:27:49;;;;;;;5.65;1.60;;;20.60;42.90;;;;;;4986422;28;20935;-68
2021/05/06 08:30:16;;;;;;;2.78;1.25;;;20.60;42.70;;;;;;5001977;28;20933;-67
2021/05/06 08:32:42;;;;;;;5.38;1.33;;;20.80;42.80;;;;;;4990022;28;20422;-68
2021/05/06 08:35:10;;;;;;;5.45;1.70;;;20.80;42.50;;;;;;5006702;28;20421;-67
2021/05/06 08:37:37;;;;;;;5.60;1.30;;;20.90;42.50;;;;;;4986994;28;20479;-68
2021/05/06 08:40:04;;;;;;;4.10;1.20;;;20.90;42.40;;;;;;4996414;28;20419;-67
2021/05/06 08:42:30;;;;;;;2.65;1.70;;;21.00;42.40;;;;;;4995964;28;20417;-68
2021/05/06 08:44:56;;;;;;;3.10;1.80;;;21.00;42.20;;;;;;4994671;28;20436;-67
2021/05/06 08:47:23;;;;;;;3.95;1.45;;;21.00;42.30;;;;;;4994585;28;20423;-68
2021/05/06 08:49:50;;;;;;;3.00;1.30;;;21.00;42.20;;;;;;5004642;28;20420;-68
2021/05/06 08:52:19;;;;;;;2.13;1.10;;;21.00;42.10;;;;;;5001463;28;20422;-67
2021/05/06 08:54:45;;;;;;;3.88;1.70;;;21.00;42.20;;;;;;4996755;28;20463;-67
2021/05/06 08:57:12;;;;;;;2.85;1.00;;;21.00;42.30;;;;;;4997113;28;20427;-68
2021/05/06 08:59:38;;;;;;;3.22;0.90;;;21.00;42.30;;;;;;4997946;28;20428;-68
2021/05/06 09:02:04;;;;;;;2.90;1.00;;;21.00;42.20;;;;;;4996880;28;20415;-68
2021/05/06 09:04:31;;;;;;;3.80;1.35;;;21.00;42.40;;;;;;4996121;28;20427;-68
2021/05/06 09:06:57;;;;;;;5.45;1.33;;;21.00;42.20;;;;;;4989570;28;21017;-67
2021/05/06 09:09:25;;;;;;;2.28;1.10;;;21.00;42.30;;;;;;5005477;28;20383;-68
2021/05/06 09:11:52;;;;;;;3.00;1.67;;;21.00;42.40;;;;;;4989773;28;20929;-67
2021/05/06 09:14:18;;;;;;;2.72;1.10;;;21.00;42.20;;;;;;4979036;28;21851;-68
2021/05/06 09:16:45;;;;;;;3.53;1.50;;;20.90;42.10;;;;;;5000834;28;20431;-68
2021/05/06 09:19:12;;;;;;;3.72;1.15;;;20.90;42.00;;;;;;5000779;28;20425;-68
2021/05/06 09:21:38;;;;;;;2.47;1.00;;;21.00;42.10;;;;;;4997600;28;20915;-67
2021/05/06 09:24:12;;;;;;;3.13;1.20;;;21.00;42.10;;;;;;4996299;28;20425;-69
2021/05/06 09:26:40;;;;;;;1.73;1.10;;;21.00;42.00;;;;;;4991482;28;20903;-67
2021/05/06 09:29:07;;;;;;;2.50;1.00;;;21.00;41.80;;;;;;5000572;28;20425;-68
2021/05/06 09:31:35;;;;;;;2.45;1.15;;;21.00;41.90;;;;;;4999500;28;20420;-67
2021/05/06 09:34:01;;;;;;;4.30;1.15;;;21.00;41.70;;;;;;4996213;28;20444;-67
2021/05/06 09:36:27;;;;;;;3.63;0.90;;;21.00;41.60;;;;;;4995149;28;20428;-67
2021/05/06 09:38:54;;;;;;;3.55;1.02;;;21.00;41.60;;;;;;5005536;28;20428;-67
2021/05/06 09:41:21;;;;;;;4.60;1.20;;;21.00;41.80;;;;;;4999451;28;20984;-67
2021/05/06 09:43:48;;;;;;;4.90;1.00;;;21.00;41.80;;;;;;4999804;28;20436;-68
2021/05/06 09:46:26;;;;;;;2.00;0.90;;;21.00;41.60;;;;;;4999183;28;20421;-68
2021/05/06 09:48:59;;;;;;;2.90;0.90;;;21.00;41.60;;;;;;4998838;28;20417;-68
2021/05/06 09:51:33;;;;;;;4.30;1.60;;;21.00;41.50;;;;;;4997140;28;20431;-68
2021/05/06 09:53:59;;;;;;;1.60;1.00;;;21.10;41.60;;;;;;4999182;28;20465;-67
2021/05/06 09:56:26;;;;;;;3.13;0.90;;;21.10;41.30;;;;;;4998662;28;20828;-68
2021/05/06 09:58:54;;;;;;;3.22;1.20;;;21.10;41.20;;;;;;4998442;28;20421;-67
2021/05/06 10:01:22;;;;;;;2.95;1.13;;;21.10;41.20;;;;;;4983820;28;20883;-67
2021/05/06 10:03:48;;;;;;;1.70;1.00;;;21.10;41.50;;;;;;4957557;28;20542;-69
2021/05/06 10:06:15;;;;;;;2.63;1.10;;;21.10;41.50;;;;;;4959224;28;20423;-68
2021/05/06 10:08:41;;;;;;;1.60;0.80;;;21.00;41.60;;;;;;4985956;28;20419;-68
2021/05/06 10:11:09;;;;;;;1.90;0.88;;;21.00;41.60;;;;;;5002040;28;20425;-68
2021/05/06 10:13:35;;;;;;;1.90;1.00;;;21.00;41.70;;;;;;4998917;28;20425;-70
2021/05/06 10:16:02;;;;;;;1.60;0.80;;;21.00;41.70;;;;;;4992245;28;20433;-68
2021/05/06 10:18:28;;;;;;;2.83;1.20;;;21.00;41.70;;;;;;4969180;28;20473;-68
2021/05/06 10:20:54;;;;;;;2.03;1.10;;;21.10;41.70;;;;;;4988178;28;20975;-68
2021/05/06 10:23:21;;;;;;;2.33;0.80;;;21.10;41.60;;;;;;4989986;28;20426;-69
2021/05/06 10:25:47;;;;;;;1.70;0.80;;;21.10;41.50;;;;;;4987580;28;20426;-68
2021/05/06 10:28:15;;;;;;;1.43;0.90;;;21.10;41.60;;;;;;4983996;28;20442;-68
2021/05/06 10:30:41;;;;;;;4.20;1.20;;;21.10;41.50;;;;;;4990538;28;20425;-67
2021/05/06 10:33:08;;;;;;;3.80;0.80;;;21.10;41.70;;;;;;4998300;28;20416;-67
2021/05/06 10:35:34;;;;;;;2.23;0.90;;;21.00;41.50;;;;;;4996667;28;20408;-68
2021/05/06 10:38:00;;;;;;;1.90;1.00;;;21.00;41.60;;;;;;4998399;28;21585;-68
2021/05/06 10:40:34;;;;;;;1.17;0.63;;;21.00;41.70;;;;;;4999887;28;20423;-68
2021/05/06 10:43:19;;;;;;;2.78;0.80;;;21.00;41.70;;;;;;4992328;28;20421;-66
2021/05/06 10:45:55;;;;;;;3.13;1.25;;;21.00;41.80;;;;;;4985307;28;20419;-66
2021/05/06 10:48:22;;;;;;;1.17;1.05;;;21.00;41.90;;;;;;4999307;28;20477;-68
2021/05/06 10:50:50;;;;;;;1.63;0.90;;;20.90;41.80;;;;;;4994295;28;20415;-68
2021/05/06 10:53:26;;;;;;;2.20;0.80;;;20.90;42.40;;;;;;4998458;28;20423;-68
2021/05/06 10:55:53;;;;;;;1.83;1.10;;;21.00;41.70;;;;;;4995669;28;20430;-68
2021/05/06 10:58:35;;;;;;;2.17;0.70;;;21.00;41.50;;;;;;4989145;28;20448;-68
2021/05/06 11:01:20;;;;;;;5.20;0.90;;;21.00;41.60;;;;;;4987603;28;20451;-68
2021/05/06 11:04:05;;;;;;;1.98;1.05;;;21.00;41.40;;;;;;4968597;28;20490;-68
2021/05/06 11:06:36;;;;;;;3.88;1.00;;;21.00;41.40;;;;;;4981213;28;20468;-68
2021/05/06 11:09:03;;;;;;;2.10;1.10;;;21.00;41.50;;;;;;5010261;28;20425;-68
2021/05/06 11:11:29;;;;;;;2.42;1.20;;;20.90;41.80;;;;;;4999245;28;20477;-68
2021/05/06 11:14:06;;;;;;;1.90;1.10;;;20.80;42.10;;;;;;4989435;28;20423;-67
2021/05/06 11:16:32;;;;;;;1.40;0.73;;;20.70;41.10;;;;;;4994910;28;20413;-68
2021/05/06 11:18:59;;;;;;;2.17;1.00;;;20.50;40.30;;;;;;4984695;28;20834;-68
2021/05/06 11:21:36;;;;;;;2.80;0.88;;;20.40;42.00;;;;;;5005206;28;20947;-67
2021/05/06 11:24:13;;;;;;;3.35;0.90;;;20.40;42.10;;;;;;4997979;28;20420;-68
2021/05/06 11:27:11;;;;;;;2.90;1.20;;;20.50;43.70;;;;;;4987324;28;20416;-67
2021/05/06 11:29:38;;;;;;;10.43;1.70;;;20.60;43.90;;;;;;4981120;28;21011;-66
2021/05/06 11:32:05;;;;;;;5.00;1.10;;;20.60;44.10;;;;;;5006879;28;20411;-68
2021/05/06 11:34:37;;;;;;;6.50;0.97;;;20.60;44.50;;;;;;4997543;28;20472;-67
2021/05/06 11:37:11;;;;;;;2.08;0.90;;;20.70;45.50;;;;;;4997135;28;20405;-67
2021/05/06 11:39:55;;;;;;;2.00;1.20;;;20.80;46.10;;;;;;4986918;28;20428;-67
2021/05/06 11:42:21;;;;;;;2.58;1.10;;;20.80;45.20;;;;;;5000024;28;20423;-68
2021/05/06 11:45:25;;;;;;;3.25;1.20;;;20.80;45.00;;;;;;4998379;28;20416;-67
2021/05/06 11:47:52;;;;;;;5.03;1.30;;;20.80;44.90;;;;;;4994772;28;20470;-67
2021/05/06 11:50:29;;;;;;;2.30;1.00;;;20.90;45.10;;;;;;4980241;28;20419;-68
2021/05/06 11:52:58;;;;;;;2.10;0.80;;;20.90;45.40;;;;;;4995366;28;20411;-68
2021/05/06 11:55:44;;;;;;;1.85;1.00;;;20.90;45.30;;;;;;5003615;28;20456;-68
2021/05/06 11:58:10;;;;;;;2.47;0.90;;;21.00;45.40;;;;;;4992751;28;21525;-67
2021/05/06 12:00:39;;;;;;;2.85;1.15;;;21.00;45.00;;;;;;4998465;28;20521;-67
2021/05/06 12:03:06;;;;;;;2.60;1.10;;;20.90;45.60;;;;;;4980981;28;20533;-66
2021/05/06 12:05:57;;;;;;;2.33;0.80;;;20.90;45.80;;;;;;4998740;28;20559;-67
2021/05/06 12:08:25;;;;;;;3.30;0.90;;;20.90;46.20;;;;;;4993964;28;21042;-67
2021/05/06 12:10:52;;;;;;;3.70;1.08;;;20.90;46.60;;;;;;4993630;28;20430;-66
2021/05/06 12:13:29;;;;;;;1.50;0.65;;;20.80;46.40;;;;;;5006928;28;20416;-67
2021/05/06 12:16:26;;;;;;;3.50;0.90;;;20.80;46.60;;;;;;4999483;28;21089;-67
2021/05/06 12:18:57;;;;;;;2.75;1.00;;;20.80;46.20;;;;;;4972091;28;20968;-67
2021/05/06 12:21:30;;;;;;;3.70;1.00;;;20.80;46.90;;;;;;4990582;28;20428;-67
2021/05/06 12:23:58;;;;;;;1.10;1.00;;;20.80;47.00;;;;;;4996277;28;20428;-67
2021/05/06 12:26:24;;;;;;;1.25;0.88;;;20.80;47.30;;;;;;4996515;28;20432;-68
2021/05/06 12:28:50;;;;;;;1.45;0.70;;;20.80;46.50;;;;;;4991127;28;20545;-67
2021/05/06 12:31:16;;;;;;;1.23;0.80;;;20.80;46.20;;;;;;5007166;28;20429;-67
2021/05/06 12:33:42;;;;;;;1.85;0.90;;;20.80;47.40;;;;;;4997751;28;21345;-67
2021/05/06 12:36:11;;;;;;;3.00;0.80;;;20.80;46.70;;;;;;5001651;28;20835;-66
2021/05/06 12:38:38;;;;;;;2.42;0.80;;;20.80;47.30;;;;;;5000153;28;20416;-67
2021/05/06 12:41:05;;;;;;;1.80;0.80;;;20.80;46.70;;;;;;5001110;28;20432;-66
2021/05/06 12:43:32;;;;;;;1.77;0.90;;;20.80;46.80;;;;;;5002893;28;20431;-67
2021/05/06 12:46:00;;;;;;;1.70;0.90;;;20.80;47.00;;;;;;5000494;28;20431;-67
2021/05/06 12:48:45;;;;;;;2.92;0.80;;;20.80;46.50;;;;;;5001183;28;20836;-67
2021/05/06 12:51:13;;;;;;;3.40;0.90;;;20.80;46.60;;;;;;4986831;28;20496;-67
2021/05/06 12:53:58;;;;;;;0.80;0.80;;;20.80;47.30;;;;;;4993996;28;20403;-67
2021/05/06 12:56:29;;;;;;;2.20;1.00;;;20.80;47.30;;;;;;5000479;28;20420;-67
2021/05/06 12:58:55;;;;;;;0.90;0.73;;;20.80;47.30;;;;;;4999515;28;20424;-67
2021/05/06 13:01:31;;;;;;;2.47;0.88;;;20.80;46.70;;;;;;5001840;28;20807;-67
2021/05/06 13:04:01;;;;;;;1.75;0.90;;;20.80;47.30;;;;;;4968577;28;20493;-67
2021/05/06 13:06:31;;;;;;;3.17;0.80;;;20.80;47.60;;;;;;4989986;28;20471;-66
2021/05/06 13:08:59;;;;;;;2.42;0.80;;;20.80;47.70;;;;;;4980707;28;20430;-66
2021/05/06 13:11:25;;;;;;;1.92;0.82;;;20.80;47.90;;;;;;4976143;28;20440;-67
2021/05/06 13:13:53;;;;;;;1.90;1.00;;;20.80;48.70;;;;;;4994063;28;20425;-68
2021/05/06 13:16:34;;;;;;;0.80;0.80;;;20.80;48.50;;;;;;5009794;28;20409;-67
2021/05/06 13:19:01;;;;;;;1.90;0.90;;;20.80;48.00;;;;;;4994642;28;20436;-68
2021/05/06 13:21:27;;;;;;;1.45;0.90;;;20.90;47.40;;;;;;5002972;28;20424;-67
2021/05/06 13:23:53;;;;;;;1.00;0.90;;;20.90;47.40;;;;;;4999135;28;20412;-67
2021/05/06 13:26:29;;;;;;;2.20;0.70;;;20.90;47.00;;;;;;4994658;28;20774;-68
2021/05/06 13:28:59;;;;;;;1.77;0.80;;;20.90;47.40;;;;;;5007389;28;20469;-67
2021/05/06 13:31:30;;;;;;;1.70;0.90;;;20.90;47.40;;;;;;5001134;28;20432;-67
2021/05/06 13:34:10;;;;;;;3.13;0.90;;;20.90;47.30;;;;;;4998498;28;20780;-67
2021/05/06 13:36:36;;;;;;;1.65;0.80;;;20.90;48.30;;;;;;5001081;28;20510;-67
2021/05/06 13:39:03;;;;;;;1.10;1.00;;;20.90;47.80;;;;;;4993458;28;20489;-67
2021/05/06 13:41:30;;;;;;;3.10;1.00;;;20.80;47.60;;;;;;4992076;28;20425;-67
2021/05/06 13:43:57;;;;;;;1.17;0.88;;;20.80;47.80;;;;;;4998291;28;20424;-66
2021/05/06 13:46:24;;;;;;;2.47;0.93;;;20.80;48.60;;;;;;4998121;28;20424;-66
2021/05/06 13:48:50;;;;;;;1.10;1.00;;;20.80;48.00;;;;;;4997688;28;20420;-67
2021/05/06 13:51:18;;;;;;;1.20;0.68;;;20.90;47.40;;;;;;4994848;28;20420;-67
2021/05/06 13:53:45;;;;;;;2.08;0.90;;;20.90;47.00;;;;;;4996064;28;20436;-68
2021/05/06 13:56:12;;;;;;;1.20;1.10;;;20.90;47.60;;;;;;5002789;28;20447;-68
2021/05/06 13:58:38;;;;;;;1.50;0.80;;;20.90;47.40;;;;;;4999457;28;20606;-67
2021/05/06 14:01:05;;;;;;;3.42;0.98;;;20.90;47.40;;;;;;5000793;28;21154;-67
2021/05/06 14:03:32;;;;;;;0.80;0.80;;;20.90;48.00;;;;;;4999612;28;20438;-68
2021/05/06 14:05:59;;;;;;;0.90;0.90;;;20.80;47.30;;;;;;4997832;28;20440;-67
2021/05/06 14:08:26;;;;;;;2.08;1.10;;;20.80;47.70;;;;;;4971919;28;20452;-67
2021/05/06 14:10:52;;;;;;;1.70;1.10;;;20.90;48.30;;;;;;4970788;28;20523;-67
2021/05/06 14:13:18;;;;;;;2.22;0.90;;;20.90;47.20;;;;;;4986656;28;20415;-67
2021/05/06 14:15:44;;;;;;;2.53;1.40;;;20.90;47.90;;;;;;4981419;28;20479;-68
2021/05/06 14:18:10;;;;;;;2.05;1.00;;;20.90;47.60;;;;;;4971570;28;20503;-67
2021/05/06 14:20:38;;;;;;;2.37;1.00;;;21.00;48.00;;;;;;4995371;28;20412;-66
2021/05/06 14:23:04;;;;;;;1.30;1.00;;;21.00;48.00;;;;;;4996522;28;20409;-67
2021/05/06 14:25:30;;;;;;;0.90;0.90;;;21.00;47.90;;;;;;5000056;28;20411;-67
2021/05/06 14:27:57;;;;;;;1.73;1.00;;;21.00;48.60;;;;;;5003884;28;20425;-66
2021/05/06 14:30:23;;;;;;;0.70;0.70;;;21.00;48.50;;;;;;5002623;28;20536;-68
2021/05/06 14:32:49;;;;;;;1.40;0.90;;;21.00;48.60;;;;;;5002446;28;20416;-67
2021/05/06 14:35:16;;;;;;;2.00;0.98;;;21.00;48.80;;;;;;4985600;28;20436;-67
2021/05/06 14:37:42;;;;;;;2.75;1.05;;;21.00;47.80;;;;;;5000461;28;20424;-66
2021/05/06 14:40:10;;;;;;;1.38;1.00;;;21.00;49.10;;;;;;4984286;28;20424;-67
2021/05/06 14:42:36;;;;;;;1.98;1.10;;;20.90;49.00;;;;;;4996772;28;20932;-66
2021/05/06 14:45:03;;;;;;;1.20;0.90;;;20.90;49.40;;;;;;4996891;28;20804;-66
2021/05/06 14:47:29;;;;;;;2.30;1.00;;;20.90;49.20;;;;;;4989958;28;20425;-71
2021/05/06 14:49:56;;;;;;;1.20;1.00;;;20.90;49.00;;;;;;4985114;28;20459;-67
2021/05/06 14:52:23;;;;;;;2.60;0.90;;;20.90;48.80;;;;;;4995601;28;20493;-66
2021/05/06 14:54:49;;;;;;;0.90;0.90;;;20.90;49.10;;;;;;4992256;28;20434;-66
2021/05/06 14:57:16;;;;;;;1.95;1.10;;;20.90;48.50;;;;;;4991514;28;20432;-67
2021/05/06 14:59:42;;;;;;;2.15;0.90;;;20.90;49.60;;;;;;4988699;28;20796;-67
2021/05/06 15:02:08;;;;;;;1.40;1.00;;;20.90;49.40;;;;;;4992769;28;20947;-67
2021/05/06 15:04:34;;;;;;;1.50;1.00;;;20.90;49.20;;;;;;4964521;28;20430;-67
2021/05/06 15:07:00;;;;;;;2.30;0.80;;;21.00;48.80;;;;;;4974793;28;20432;-66
2021/05/06 15:09:27;;;;;;;2.28;1.00;;;21.00;48.50;;;;;;4977219;28;20409;-66
2021/05/06 15:11:56;;;;;;;3.30;0.70;;;21.00;48.60;;;;;;4989889;28;20451;-66
2021/05/06 15:14:22;;;;;;;1.83;0.80;;;21.00;48.20;;;;;;4974176;28;20461;-66
2021/05/06 15:16:48;;;;;;;1.00;0.77;;;20.90;47.90;;;;;;4949392;28;20958;-66
2021/05/06 15:19:14;;;;;;;3.08;1.00;;;20.90;47.70;;;;;;4984466;28;20431;-67
2021/05/06 15:21:40;;;;;;;4.10;1.60;;;20.90;47.60;;;;;;4997721;28;20419;-66